Time;durP1;ratioP1;P1;durP2;ratioP2;P2;SDS_P1;SDS_P2;PMS_P1;PMS_P2;Temp;Humidity;BMP_temperature;BMP_pressure;BME280_temperature;BME280_humidity;BME280_pressure;Samples;Min_cycle;Max_cycle;Signal;HPM_P1;HPM_P2
2021/11/03 00:01:40;;;;;;;5.47;4.97;;;;;;;10.40;71.28;99470.13;4991606;28;20088;-43
2021/11/03 00:04:08;;;;;;;5.82;4.47;;;;;;;10.40;71.13;99475.38;4992491;28;20516;-43
2021/11/03 00:06:34;;;;;;;5.47;4.95;;;;;;;10.38;71.00;99461.38;4999311;28;20080;-43
2021/11/03 00:09:01;;;;;;;5.68;4.82;;;;;;;10.38;71.14;99465.81;4991453;28;20030;-45
2021/11/03 00:11:26;;;;;;;5.32;4.80;;;;;;;10.40;70.95;99470.13;4991598;28;20113;-42
2021/11/03 00:13:51;;;;;;;5.80;4.70;;;;;;;10.40;71.10;99470.13;4978891;28;20027;-42
2021/11/03 00:16:17;;;;;;;4.30;3.90;;;;;;;10.40;71.16;99470.13;5002766;28;20429;-44
2021/11/03 00:18:43;;;;;;;5.25;4.82;;;;;;;10.39;71.15;99467.53;5009149;28;20044;-42
2021/11/03 00:21:08;;;;;;;5.03;4.53;;;;;;;10.40;70.90;99470.13;5001752;28;20022;-43
2021/11/03 00:23:34;;;;;;;5.80;5.20;;;;;;;10.40;70.93;99469.25;5007968;28;20026;-43
2021/11/03 00:25:59;;;;;;;4.80;4.40;;;;;;;10.38;71.01;99464.00;5007181;28;20056;-43
2021/11/03 00:28:25;;;;;;;5.72;4.25;;;;;;;10.39;71.03;99464.88;5005201;28;20096;-43
2021/11/03 00:30:54;;;;;;;5.30;4.03;;;;;;;10.40;70.82;99458.69;5009747;28;20068;-43
2021/11/03 00:33:21;;;;;;;4.43;4.05;;;;;;;10.37;71.06;99458.81;5007058;28;20060;-43
2021/11/03 00:35:47;;;;;;;4.85;4.35;;;;;;;10.37;71.07;99464.94;5007055;28;20030;-44
2021/11/03 00:38:12;;;;;;;4.50;4.10;;;;;;;10.36;71.06;99455.31;5013653;28;20033;-43
2021/11/03 00:40:37;;;;;;;4.75;4.35;;;;;;;10.38;70.91;99457.91;5005681;28;20117;-44
2021/11/03 00:43:03;;;;;;;4.45;3.88;;;;;;;10.36;70.91;99452.66;4998040;28;20025;-43
2021/11/03 00:45:29;;;;;;;4.40;4.00;;;;;;;10.37;70.87;99454.38;5001925;28;20101;-43
2021/11/03 00:47:54;;;;;;;4.57;3.97;;;;;;;10.36;71.03;99457.94;4994847;28;20077;-43
2021/11/03 00:50:20;;;;;;;4.53;4.13;;;;;;;10.36;71.12;99465.84;5000407;28;20025;-41
2021/11/03 00:52:46;;;;;;;3.88;3.58;;;;;;;10.32;70.88;99458.94;5012210;28;20026;-42
2021/11/03 00:55:11;;;;;;;4.47;3.88;;;;;;;10.36;71.02;99459.69;5010638;28;20374;-43
2021/11/03 00:57:37;;;;;;;4.50;4.10;;;;;;;10.35;70.97;99461.50;4996204;28;20113;-42
2021/11/03 01:00:06;;;;;;;4.68;3.85;;;;;;;10.34;70.85;99459.72;5002175;28;20047;-42
2021/11/03 01:02:32;;;;;;;4.65;4.03;;;;;;;10.34;71.04;99454.47;5003862;28;20038;-45
2021/11/03 01:04:57;;;;;;;4.20;3.80;;;;;;;10.34;71.06;99446.56;5013599;28;20032;-43
2021/11/03 01:07:22;;;;;;;4.20;3.78;;;;;;;10.34;71.09;99438.66;5004281;28;20029;-43
2021/11/03 01:09:47;;;;;;;4.80;3.85;;;;;;;10.34;71.18;99438.66;5003108;28;20053;-43
2021/11/03 01:12:13;;;;;;;5.65;4.32;;;;;;;10.34;70.98;99446.56;5011047;28;20615;-43
2021/11/03 01:14:38;;;;;;;4.25;3.85;;;;;;;10.33;71.18;99446.59;4997081;28;20089;-43
2021/11/03 01:17:05;;;;;;;3.85;3.47;;;;;;;10.32;71.13;99448.38;4984600;28;20057;-43
2021/11/03 01:19:30;;;;;;;4.93;3.75;;;;;;;10.31;71.06;99449.31;5010545;28;20061;-43
2021/11/03 01:21:55;;;;;;;4.15;3.67;;;;;;;10.32;70.99;99461.56;5009905;28;20061;-42
2021/11/03 01:24:20;;;;;;;4.22;3.78;;;;;;;10.32;71.37;99472.09;4994015;28;20042;-42
2021/11/03 01:26:46;;;;;;;4.00;3.70;;;;;;;10.32;71.04;99482.66;5011273;28;20021;-43
2021/11/03 01:29:11;;;;;;;4.30;3.90;;;;;;;10.31;71.13;99488.84;4997483;28;20037;-42
2021/11/03 01:31:37;;;;;;;3.67;3.30;;;;;;;10.31;71.00;99483.56;5002246;28;20566;-43
2021/11/03 01:34:04;;;;;;;3.83;3.42;;;;;;;10.30;71.23;99483.59;5003788;28;20034;-44
2021/11/03 01:36:29;;;;;;;3.65;3.35;;;;;;;10.30;71.23;99483.59;5012795;28;20049;-43
2021/11/03 01:38:55;;;;;;;3.53;3.22;;;;;;;10.30;70.91;99484.44;5011266;28;20482;-44
2021/11/03 01:41:21;;;;;;;3.72;3.42;;;;;;;10.28;71.27;99483.63;5005160;28;20435;-44
2021/11/03 01:43:48;;;;;;;3.40;3.10;;;;;;;10.28;71.26;99481.00;4998599;28;20030;-44
2021/11/03 01:46:31;;;;;;;3.50;3.20;;;;;;;10.29;71.15;99476.59;5004605;28;20194;-43
2021/11/03 01:48:59;;;;;;;3.97;3.38;;;;;;;10.30;71.02;99473.91;4999762;28;20051;-44
2021/11/03 01:51:45;;;;;;;3.28;2.97;;;;;;;10.28;70.86;99473.09;5001157;28;20500;-44
2021/11/03 01:54:15;;;;;;;3.35;3.05;;;;;;;10.29;71.27;99472.19;5021664;28;20034;-43
2021/11/03 01:56:40;;;;;;;3.40;3.10;;;;;;;10.27;70.94;99458.16;4993363;28;20401;-43
2021/11/03 01:59:17;;;;;;;3.80;3.45;;;;;;;10.28;71.07;99465.19;5008727;28;20540;-43
2021/11/03 02:01:42;;;;;;;3.80;3.40;;;;;;;10.26;70.97;99461.72;5007049;28;20038;-44
2021/11/03 02:04:08;;;;;;;4.32;3.55;;;;;;;10.25;71.10;99465.28;5007074;28;20087;-43
2021/11/03 02:06:33;;;;;;;3.10;2.80;;;;;;;10.24;70.93;99467.03;5005458;28;20018;-43
2021/11/03 02:08:59;;;;;;;3.80;3.38;;;;;;;10.24;71.03;99458.28;5006512;28;20117;-43
2021/11/03 02:11:27;;;;;;;3.58;3.28;;;;;;;10.26;71.16;99459.09;4997551;28;20026;-43
2021/11/03 02:13:53;;;;;;;4.05;3.65;;;;;;;10.26;70.95;99459.09;4998943;28;20080;-43
2021/11/03 02:16:19;;;;;;;3.50;3.20;;;;;;;10.25;71.02;99465.28;5010496;28;20496;-43
2021/11/03 02:18:45;;;;;;;3.60;3.28;;;;;;;10.23;71.16;99461.81;5000611;28;20030;-43
2021/11/03 02:21:15;;;;;;;3.70;3.35;;;;;;;10.24;71.21;99458.28;5011198;28;20014;-43
2021/11/03 02:24:08;;;;;;;3.45;3.15;;;;;;;10.24;70.99;99458.28;5012647;28;20068;-44
2021/11/03 02:26:43;;;;;;;3.63;3.33;;;;;;;10.23;71.11;99451.25;5006120;28;20026;-44
2021/11/03 02:29:09;;;;;;;4.03;3.63;;;;;;;10.23;70.93;99451.25;5011623;28;20033;-43
2021/11/03 02:31:38;;;;;;;3.30;3.00;;;;;;;10.21;71.05;99459.19;5007274;28;20018;-44
2021/11/03 02:34:08;;;;;;;3.30;3.00;;;;;;;10.21;71.27;99453.94;4999380;28;20043;-44
2021/11/03 02:36:34;;;;;;;3.38;3.08;;;;;;;10.20;71.20;99456.63;5008740;28;20030;-43
2021/11/03 02:39:04;;;;;;;3.35;3.05;;;;;;;10.22;70.91;99455.69;4993016;28;20080;-43
2021/11/03 02:41:32;;;;;;;4.10;2.92;;;;;;;10.22;71.02;99470.63;4996253;28;20084;-44
2021/11/03 02:44:09;;;;;;;2.95;2.65;;;;;;;10.18;70.95;99469.84;5000768;28;20022;-43
2021/11/03 02:46:35;;;;;;;3.90;2.70;;;;;;;10.19;71.25;99460.16;5002790;28;20481;-44
2021/11/03 02:49:00;;;;;;;3.22;2.90;;;;;;;10.20;71.01;99464.53;4996293;28;20101;-44
2021/11/03 02:51:35;;;;;;;3.30;3.00;;;;;;;10.21;71.18;99455.72;5007733;28;20385;-44
2021/11/03 02:54:09;;;;;;;3.17;2.90;;;;;;;10.19;70.98;99460.16;5011043;28;20021;-44
2021/11/03 02:56:39;;;;;;;3.28;2.97;;;;;;;10.19;71.23;99465.44;5004105;28;20026;-44
2021/11/03 02:59:06;;;;;;;3.10;2.85;;;;;;;10.18;70.99;99461.94;5001245;28;20537;-42
2021/11/03 03:01:34;;;;;;;3.58;3.28;;;;;;;10.19;70.98;99465.44;5010065;28;20034;-43
2021/11/03 03:04:00;;;;;;;3.63;3.33;;;;;;;10.19;71.22;99470.69;4995949;28;20041;-42
2021/11/03 03:06:28;;;;;;;2.88;2.67;;;;;;;10.19;71.07;99475.97;5008529;28;20028;-42
2021/11/03 03:08:55;;;;;;;4.82;2.80;;;;;;;10.18;71.04;99484.78;4996528;28;20030;-43
2021/11/03 03:11:21;;;;;;;3.03;2.83;;;;;;;10.18;70.90;99468.97;5005339;28;20024;-42
2021/11/03 03:13:49;;;;;;;3.05;2.85;;;;;;;10.17;70.92;99478.63;5006216;28;20466;-41
2021/11/03 03:16:14;;;;;;;2.92;2.72;;;;;;;10.16;70.91;99478.69;5005422;28;20398;-44
2021/11/03 03:18:39;;;;;;;3.35;3.03;;;;;;;10.17;71.35;99480.44;5003572;28;20061;-44
2021/11/03 03:21:05;;;;;;;3.28;2.97;;;;;;;10.16;70.90;99476.03;5008038;28;20462;-44
2021/11/03 03:23:30;;;;;;;3.30;3.00;;;;;;;10.17;70.96;99473.38;5000843;28;20018;-44
2021/11/03 03:25:57;;;;;;;3.10;2.80;;;;;;;10.17;71.19;99475.16;5005861;28;20041;-44
2021/11/03 03:28:22;;;;;;;3.38;2.78;;;;;;;10.16;71.29;99476.03;4998528;28;20153;-44
2021/11/03 03:30:48;;;;;;;3.15;2.85;;;;;;;10.16;71.27;99468.13;5003347;28;20441;-44
2021/11/03 03:33:13;;;;;;;2.92;2.65;;;;;;;10.14;70.99;99466.41;4999873;28;20037;-42
2021/11/03 03:35:39;;;;;;;3.63;2.85;;;;;;;10.14;71.11;99470.84;4999264;28;20080;-44
2021/11/03 03:38:04;;;;;;;3.28;2.97;;;;;;;10.13;71.26;99459.44;5011753;28;20474;-43
2021/11/03 03:40:29;;;;;;;2.85;2.65;;;;;;;10.13;71.21;99472.59;5010750;28;20030;-44
2021/11/03 03:42:55;;;;;;;3.08;2.78;;;;;;;10.13;71.32;99462.06;4998770;28;20025;-43
2021/11/03 03:45:21;;;;;;;3.30;3.00;;;;;;;10.13;71.18;99462.06;4999592;28;20106;-43
2021/11/03 03:47:46;;;;;;;3.08;2.78;;;;;;;10.12;71.00;99460.34;5009769;28;20030;-43
2021/11/03 03:50:12;;;;;;;3.15;2.88;;;;;;;10.14;70.79;99466.41;5000157;28;20394;-43
2021/11/03 03:52:38;;;;;;;2.55;2.35;;;;;;;10.12;71.09;99465.63;5017651;28;20109;-43
2021/11/03 03:55:05;;;;;;;2.95;2.70;;;;;;;10.12;71.13;99465.63;5005486;28;20105;-43
2021/11/03 03:57:30;;;;;;;3.15;2.85;;;;;;;10.12;71.10;99464.75;5005308;28;20022;-44
2021/11/03 03:59:56;;;;;;;2.72;2.53;;;;;;;10.12;71.25;99470.00;4999530;28;20034;-43
2021/11/03 04:02:21;;;;;;;2.65;2.45;;;;;;;10.11;71.23;99481.47;4999591;28;20034;-44
2021/11/03 04:04:46;;;;;;;2.58;2.38;;;;;;;10.11;70.92;99482.31;5003456;28;20091;-43
2021/11/03 04:07:11;;;;;;;3.25;2.70;;;;;;;10.09;70.92;99468.31;4996476;28;20026;-43
2021/11/03 04:09:37;;;;;;;2.95;2.60;;;;;;;10.09;70.54;99478.84;4997267;28;20026;-44
2021/11/03 04:12:02;;;;;;;2.47;2.28;;;;;;;10.10;70.90;99474.44;5001951;28;20486;-44
2021/11/03 04:14:28;;;;;;;2.75;2.55;;;;;;;10.08;71.07;99477.13;5010303;28;20101;-44
2021/11/03 04:16:53;;;;;;;2.80;2.20;;;;;;;10.08;71.07;99474.50;4995108;28;20026;-44
2021/11/03 04:19:19;;;;;;;2.85;2.55;;;;;;;10.08;71.13;99474.50;4995564;28;20030;-44
2021/11/03 04:21:44;;;;;;;3.28;2.97;;;;;;;10.07;70.97;99475.38;5010171;28;20038;-44
2021/11/03 04:24:09;;;;;;;2.78;2.58;;;;;;;10.06;71.06;99470.16;5012180;28;20482;-44
2021/11/03 04:26:37;;;;;;;2.65;2.30;;;;;;;10.09;70.91;99468.31;5014370;28;20030;-44
2021/11/03 04:29:04;;;;;;;2.60;2.40;;;;;;;10.07;71.22;99462.22;5006140;28;20091;-44
2021/11/03 04:31:29;;;;;;;2.63;2.30;;;;;;;10.07;71.16;99467.47;5005138;28;20022;-44
2021/11/03 04:33:55;;;;;;;2.72;2.35;;;;;;;10.06;71.18;99465.75;4999627;28;20034;-44
2021/11/03 04:36:22;;;;;;;3.00;2.80;;;;;;;10.06;70.97;99470.16;5010371;28;20575;-44
2021/11/03 04:38:48;;;;;;;3.10;2.45;;;;;;;10.06;70.77;99465.75;5014528;28;20588;-44
2021/11/03 04:41:14;;;;;;;2.75;2.55;;;;;;;10.06;71.19;99464.88;5014685;28;20061;-44
2021/11/03 04:43:39;;;;;;;2.42;2.22;;;;;;;10.06;71.12;99465.75;5011477;28;20049;-44
2021/11/03 04:46:04;;;;;;;2.85;2.50;;;;;;;10.05;70.83;99464.03;5002648;28;20042;-44
2021/11/03 04:48:30;;;;;;;2.80;2.60;;;;;;;10.05;71.11;99463.16;5000512;28;20030;-44
2021/11/03 04:50:55;;;;;;;3.45;3.15;;;;;;;10.04;71.20;99467.56;5004409;28;20017;-44
2021/11/03 04:53:22;;;;;;;2.78;2.47;;;;;;;10.04;71.04;99467.56;5013606;28;20057;-44
2021/11/03 04:55:48;;;;;;;2.97;2.70;;;;;;;10.03;71.17;99468.47;5008929;28;20053;-44
2021/11/03 04:58:14;;;;;;;2.35;2.15;;;;;;;10.03;71.17;99471.09;5013698;28;20026;-44
2021/11/03 05:00:40;;;;;;;2.38;2.17;;;;;;;10.03;71.02;99471.09;5002002;28;20471;-42
2021/11/03 05:03:05;;;;;;;2.53;2.20;;;;;;;10.03;70.97;99476.38;5005205;28;20113;-43
2021/11/03 05:05:31;;;;;;;2.75;2.55;;;;;;;10.02;70.92;99474.66;5008949;28;20022;-44
2021/11/03 05:07:56;;;;;;;2.40;2.20;;;;;;;10.01;71.13;99472.94;5002985;28;20065;-44
2021/11/03 05:10:23;;;;;;;2.55;2.35;;;;;;;10.02;71.07;99474.66;5001535;28;20037;-43
2021/11/03 05:12:49;;;;;;;2.65;2.20;;;;;;;10.01;71.13;99476.41;5007940;28;20030;-43
2021/11/03 05:15:15;;;;;;;2.30;2.10;;;;;;;9.99;71.24;99482.63;5010578;28;20379;-43
2021/11/03 05:17:40;;;;;;;2.72;2.53;;;;;;;10.00;70.99;99473.81;5004143;28;20508;-43
2021/11/03 05:20:07;;;;;;;2.90;2.60;;;;;;;9.99;71.09;99472.09;4995385;28;20030;-43
2021/11/03 05:22:32;;;;;;;2.72;2.53;;;;;;;9.99;71.23;99480.88;4995265;28;20030;-43
2021/11/03 05:24:58;;;;;;;3.53;2.40;;;;;;;9.99;70.89;99480.00;4993749;28;20053;-43
2021/11/03 05:27:24;;;;;;;2.35;2.15;;;;;;;9.99;70.98;99483.50;5000894;28;20092;-42
2021/11/03 05:29:50;;;;;;;3.28;2.50;;;;;;;9.98;71.06;99488.81;5007465;28;20034;-43
2021/11/03 05:32:15;;;;;;;3.05;2.75;;;;;;;9.99;71.18;99490.53;5001476;28;20029;-43
2021/11/03 05:34:41;;;;;;;2.85;2.28;;;;;;;10.00;70.97;99492.25;5003867;28;20026;-44
2021/11/03 05:37:06;;;;;;;3.05;2.75;;;;;;;9.97;71.16;99492.34;5007090;28;20022;-44
2021/11/03 05:39:32;;;;;;;2.60;2.40;;;;;;;9.97;70.88;99493.19;5008920;28;20024;-43
2021/11/03 05:41:57;;;;;;;3.28;2.53;;;;;;;9.97;71.22;99495.00;5011305;28;20026;-43
2021/11/03 05:44:23;;;;;;;2.47;2.28;;;;;;;9.96;71.08;99506.41;4999840;28;20025;-44
2021/11/03 05:46:56;;;;;;;2.35;2.15;;;;;;;9.95;70.93;99499.41;4992206;28;20037;-43
2021/11/03 05:49:25;;;;;;;2.33;2.13;;;;;;;9.96;70.93;99507.28;4996414;28;20032;-43
2021/11/03 05:51:51;;;;;;;2.85;2.55;;;;;;;9.94;70.95;99501.19;4997292;28;20030;-43
2021/11/03 05:54:17;;;;;;;2.40;2.20;;;;;;;9.96;70.97;99501.13;4996883;28;20030;-44
2021/11/03 05:56:43;;;;;;;2.42;2.22;;;;;;;9.95;71.07;99505.56;5000349;28;20499;-43
2021/11/03 05:59:08;;;;;;;2.70;2.40;;;;;;;9.95;70.97;99504.69;5003248;28;20040;-44
2021/11/03 06:01:34;;;;;;;2.50;2.30;;;;;;;9.95;71.00;99502.06;5001660;28;20030;-44
2021/11/03 06:03:59;;;;;;;2.42;2.22;;;;;;;9.95;71.10;99516.09;4998940;28;20113;-42
2021/11/03 06:06:25;;;;;;;2.20;2.00;;;;;;;9.93;71.04;99509.13;5002508;28;20062;-43
2021/11/03 06:08:51;;;;;;;2.22;1.95;;;;;;;9.94;71.04;99510.88;4993403;28;20026;-42
2021/11/03 06:11:18;;;;;;;1.90;1.73;;;;;;;9.93;71.25;99506.47;5001691;28;20462;-43
2021/11/03 06:13:44;;;;;;;2.60;2.30;;;;;;;9.92;71.04;99504.75;5010195;28;20444;-42
2021/11/03 06:16:10;;;;;;;2.30;2.10;;;;;;;9.92;71.11;99507.38;5002230;28;20026;-42
2021/11/03 06:18:36;;;;;;;2.70;2.50;;;;;;;9.91;71.01;99508.31;5009078;28;20076;-43
2021/11/03 06:21:01;;;;;;;2.53;2.20;;;;;;;9.92;71.12;99520.56;5000565;28;20030;-42
2021/11/03 06:23:28;;;;;;;2.65;2.45;;;;;;;9.91;71.12;99514.44;5000605;28;20042;-43
2021/11/03 06:25:53;;;;;;;2.70;2.25;;;;;;;9.91;70.91;99513.56;4997848;28;20037;-44
2021/11/03 06:28:19;;;;;;;2.30;2.10;;;;;;;9.90;70.93;99517.97;5007781;28;20033;-41
2021/11/03 06:30:44;;;;;;;2.15;2.00;;;;;;;9.91;71.21;99526.75;5006297;28;20109;-42
2021/11/03 06:33:10;;;;;;;2.22;2.03;;;;;;;9.90;71.09;99522.38;4995259;28;20034;-43
2021/11/03 06:35:36;;;;;;;2.25;1.92;;;;;;;9.89;70.89;99518.88;4982459;28;20059;-42
2021/11/03 06:38:03;;;;;;;2.72;2.30;;;;;;;9.88;71.26;99520.63;5000849;28;20033;-42
2021/11/03 06:40:29;;;;;;;2.78;2.58;;;;;;;9.90;70.99;99533.75;4999710;28;20501;-41
2021/11/03 06:42:55;;;;;;;2.72;2.53;;;;;;;9.90;71.03;99532.91;4988756;28;20022;-42
2021/11/03 06:45:21;;;;;;;2.50;2.30;;;;;;;9.89;71.08;99537.31;5003492;28;20042;-42
2021/11/03 06:47:47;;;;;;;2.25;2.00;;;;;;;9.88;70.96;99531.16;5008057;28;20029;-42
2021/11/03 06:50:16;;;;;;;2.90;2.70;;;;;;;9.88;71.17;99536.44;4993921;28;20072;-42
2021/11/03 06:52:43;;;;;;;3.70;2.53;;;;;;;9.88;71.17;99543.50;5009035;28;20030;-42
2021/11/03 06:55:08;;;;;;;2.42;2.22;;;;;;;9.86;71.04;99542.66;4995558;28;20058;-45
2021/11/03 06:57:34;;;;;;;2.47;2.25;;;;;;;9.86;71.08;99545.28;4993634;28;20101;-42
2021/11/03 07:00:00;;;;;;;2.55;2.33;;;;;;;9.86;71.00;99554.06;4990654;28;20034;-42
2021/11/03 07:02:26;;;;;;;2.85;2.50;;;;;;;9.87;71.18;99561.03;5010131;28;20056;-42
2021/11/03 07:04:51;;;;;;;2.45;2.25;;;;;;;9.86;71.14;99559.31;5007380;28;20549;-45
2021/11/03 07:07:16;;;;;;;2.88;2.55;;;;;;;9.86;71.17;99561.09;4990742;28;20034;-42
2021/11/03 07:09:42;;;;;;;2.60;2.40;;;;;;;9.86;71.16;99564.59;4991057;28;20026;-42
2021/11/03 07:12:07;;;;;;;2.70;2.50;;;;;;;9.85;70.91;99573.41;5009321;28;20394;-42
2021/11/03 07:14:32;;;;;;;2.40;2.20;;;;;;;9.85;71.20;99577.78;4993030;28;20024;-42
2021/11/03 07:16:58;;;;;;;2.72;2.53;;;;;;;9.84;71.02;99568.16;5010053;28;20028;-42
2021/11/03 07:19:23;;;;;;;2.55;2.33;;;;;;;9.84;71.10;99573.44;5011966;28;20394;-42
2021/11/03 07:21:48;;;;;;;2.30;2.10;;;;;;;9.83;71.17;99569.94;5011698;28;20100;-42
2021/11/03 07:24:14;;;;;;;2.85;2.55;;;;;;;9.84;71.17;99571.66;5010088;28;20430;-43
2021/11/03 07:26:44;;;;;;;3.17;2.88;;;;;;;9.84;71.20;99569.03;5011404;28;20038;-42
2021/11/03 07:29:11;;;;;;;2.95;2.47;;;;;;;9.83;71.16;99569.94;4995600;28;20438;-42
2021/11/03 07:31:36;;;;;;;3.10;2.80;;;;;;;9.82;70.97;99567.31;5009629;28;20493;-43
2021/11/03 07:34:01;;;;;;;4.05;2.92;;;;;;;9.83;70.97;99558.50;5011695;28;20029;-42
2021/11/03 07:36:27;;;;;;;2.72;2.53;;;;;;;9.82;71.02;99568.22;4993723;28;20132;-41
2021/11/03 07:38:52;;;;;;;3.13;2.80;;;;;;;9.83;71.13;99569.94;5003211;28;20029;-44
2021/11/03 07:41:18;;;;;;;3.25;2.95;;;;;;;9.82;71.22;99577.88;4993237;28;20088;-42
2021/11/03 07:43:45;;;;;;;3.10;2.80;;;;;;;9.82;70.96;99572.59;5014000;28;20030;-42
2021/11/03 07:46:11;;;;;;;2.95;2.65;;;;;;;9.82;70.88;99564.69;5015003;28;20581;-43
2021/11/03 07:48:37;;;;;;;2.80;2.50;;;;;;;9.82;71.04;99572.59;5025057;28;20022;-42
2021/11/03 07:51:05;;;;;;;2.83;2.60;;;;;;;9.81;71.23;99569.13;5034282;28;20021;-42
2021/11/03 07:53:31;;;;;;;2.72;2.53;;;;;;;9.79;71.09;99568.28;5004535;28;20120;-43
2021/11/03 07:56:00;;;;;;;3.88;2.58;;;;;;;9.80;71.12;99551.56;5015017;28;20469;-42
2021/11/03 07:58:28;;;;;;;2.45;2.25;;;;;;;9.79;71.32;99552.47;5014008;28;20156;-42
2021/11/03 08:00:54;;;;;;;2.35;2.15;;;;;;;9.79;70.95;99552.47;5014208;28;20460;-42
2021/11/03 08:03:20;;;;;;;2.78;2.35;;;;;;;9.79;71.14;99560.38;4998902;28;20030;-42
2021/11/03 08:05:49;;;;;;;2.80;2.60;;;;;;;9.78;71.18;99552.50;4994196;28;20018;-43
2021/11/03 08:08:16;;;;;;;2.33;2.13;;;;;;;9.79;71.11;99551.59;5014392;28;20509;-42
2021/11/03 08:10:45;;;;;;;3.17;2.78;;;;;;;9.78;70.99;99549.88;5014076;28;20111;-43
2021/11/03 08:13:16;;;;;;;3.13;2.70;;;;;;;9.77;71.25;99550.78;5015223;28;20490;-42
2021/11/03 08:15:47;;;;;;;2.75;2.55;;;;;;;9.78;71.21;99548.13;5014038;28;20030;-43
2021/11/03 08:18:13;;;;;;;3.13;2.40;;;;;;;9.77;71.06;99542.88;5014108;28;20030;-42
2021/11/03 08:20:40;;;;;;;2.97;2.58;;;;;;;9.77;71.21;99543.72;4998773;28;20393;-42
2021/11/03 08:23:06;;;;;;;2.55;2.35;;;;;;;9.77;71.07;99537.63;5014006;28;20041;-42
2021/11/03 08:25:31;;;;;;;2.83;2.53;;;;;;;9.77;71.01;99546.34;5011297;28;20030;-42
2021/11/03 08:27:57;;;;;;;3.13;2.53;;;;;;;9.77;71.40;99540.25;5014529;28;20022;-43
2021/11/03 08:30:22;;;;;;;2.88;2.67;;;;;;;9.77;71.03;99540.25;5002079;28;20482;-42
2021/11/03 08:32:55;;;;;;;3.83;2.92;;;;;;;9.77;71.27;99530.56;5006588;28;20383;-43
2021/11/03 08:35:22;;;;;;;2.78;2.58;;;;;;;9.77;71.13;99534.97;4999601;28;20033;-44
2021/11/03 08:37:49;;;;;;;2.85;2.63;;;;;;;9.77;71.04;99529.72;5006255;28;20702;-42
2021/11/03 08:40:16;;;;;;;2.47;2.10;;;;;;;9.76;71.28;99526.22;5002132;28;20458;-44
2021/11/03 08:42:42;;;;;;;3.50;3.20;;;;;;;9.75;71.13;99530.63;5002611;28;20144;-43
2021/11/03 08:45:08;;;;;;;3.22;2.92;;;;;;;9.76;71.14;99528.84;4987012;28;20113;-42
2021/11/03 08:47:34;;;;;;;2.72;2.53;;;;;;;9.75;71.39;99532.38;4994933;28;20434;-42
2021/11/03 08:49:59;;;;;;;3.13;2.40;;;;;;;9.76;71.19;99531.47;5007873;28;20025;-44
2021/11/03 08:52:25;;;;;;;2.80;2.53;;;;;;;9.75;71.14;99532.38;5009880;28;20021;-44
2021/11/03 08:54:50;;;;;;;3.22;2.58;;;;;;;9.76;71.31;99536.75;5002186;28;20486;-44
2021/11/03 08:57:19;;;;;;;2.90;2.70;;;;;;;9.77;71.34;99537.63;4993056;28;20034;-44
2021/11/03 08:59:45;;;;;;;3.55;2.42;;;;;;;9.77;71.28;99541.09;5004973;28;20034;-44
2021/11/03 09:02:11;;;;;;;2.63;2.33;;;;;;;9.78;71.13;99539.34;4991779;28;20038;-44
2021/11/03 09:04:37;;;;;;;2.72;2.53;;;;;;;9.78;71.16;99542.84;4991426;28;20407;-44
2021/11/03 09:07:08;;;;;;;3.05;2.45;;;;;;;9.78;71.03;99548.13;5007224;28;20042;-44
2021/11/03 09:09:34;;;;;;;2.75;2.47;;;;;;;9.78;71.27;99539.34;5007608;28;20036;-44
2021/11/03 09:11:59;;;;;;;2.33;2.13;;;;;;;9.78;70.96;99545.47;4994887;28;20116;-43
2021/11/03 09:14:24;;;;;;;2.80;2.50;;;;;;;9.79;71.19;99549.84;5010292;28;20026;-44
2021/11/03 09:16:51;;;;;;;2.78;2.58;;;;;;;9.81;71.31;99545.41;5007587;28;20072;-43
2021/11/03 09:19:17;;;;;;;2.70;2.50;;;;;;;9.81;71.05;99542.78;4997452;28;20385;-43
2021/11/03 09:21:43;;;;;;;4.38;2.35;;;;;;;9.82;71.18;99546.25;5009920;28;20026;-44
2021/11/03 09:24:08;;;;;;;2.40;2.20;;;;;;;9.83;71.27;99548.84;5001434;28;20030;-44
2021/11/03 09:26:34;;;;;;;2.50;2.30;;;;;;;9.84;70.90;99545.31;4990815;28;20033;-43
2021/11/03 09:29:02;;;;;;;2.70;2.50;;;;;;;9.85;71.13;99546.19;5001117;28;20038;-43
2021/11/03 09:31:28;;;;;;;2.33;2.13;;;;;;;9.85;71.05;99546.19;5006637;28;20041;-44
2021/11/03 09:33:53;;;;;;;2.25;2.05;;;;;;;9.85;71.00;99539.16;4973855;28;20037;-43
2021/11/03 09:36:21;;;;;;;3.28;2.22;;;;;;;9.86;70.93;99543.53;5001608;28;20031;-44
2021/11/03 09:38:47;;;;;;;2.30;2.10;;;;;;;9.87;70.98;99539.13;4997645;28;20474;-44
2021/11/03 09:41:12;;;;;;;2.50;2.30;;;;;;;9.87;71.08;99532.06;5006236;28;20037;-44
2021/11/03 09:43:43;;;;;;;2.45;2.25;;;;;;;9.88;70.86;99544.34;5009647;28;20022;-44
2021/11/03 09:46:37;;;;;;;2.60;2.40;;;;;;;9.90;70.89;99546.09;4997442;28;20058;-44
2021/11/03 09:49:10;;;;;;;3.15;2.25;;;;;;;9.90;70.95;99548.72;4999888;28;20551;-44
2021/11/03 09:51:37;;;;;;;2.50;2.30;;;;;;;9.90;70.75;99541.66;5004844;28;20034;-43
2021/11/03 09:54:06;;;;;;;2.47;2.28;;;;;;;9.90;70.88;99548.72;5005839;28;22315;-44
2021/11/03 09:56:38;;;;;;;2.42;2.10;;;;;;;9.92;70.92;99546.91;5009948;28;20026;-43
2021/11/03 09:59:23;;;;;;;2.53;2.25;;;;;;;9.91;71.01;99539.91;4997665;28;20426;-44
2021/11/03 10:01:55;;;;;;;2.00;1.90;;;;;;;9.91;70.72;99542.53;4994451;28;20026;-43
2021/11/03 10:04:56;;;;;;;2.33;2.13;;;;;;;9.91;70.78;99540.78;5009981;28;20053;-44
2021/11/03 10:07:33;;;;;;;2.30;2.10;;;;;;;9.91;70.70;99537.28;5002460;28;20022;-44
2021/11/03 10:10:22;;;;;;;2.28;2.08;;;;;;;9.93;70.65;99522.28;5010476;28;20037;-44
2021/11/03 10:12:48;;;;;;;1.80;1.70;;;;;;;9.93;70.72;99532.81;5012073;28;20030;-44
2021/11/03 10:15:20;;;;;;;3.90;2.22;;;;;;;9.93;70.60;99522.28;5007484;28;20029;-44
2021/11/03 10:17:45;;;;;;;2.90;2.65;;;;;;;9.95;70.73;99531.03;4993447;28;20057;-44
2021/11/03 10:20:31;;;;;;;2.13;1.92;;;;;;;9.93;70.78;99507.34;4994102;28;20479;-43
2021/11/03 10:23:16;;;;;;;1.90;1.80;;;;;;;9.95;70.72;99515.22;4994800;28;20504;-43
2021/11/03 10:25:46;;;;;;;2.85;2.40;;;;;;;9.95;70.92;99509.97;4993740;28;20026;-43
2021/11/03 10:28:25;;;;;;;2.47;2.28;;;;;;;9.96;70.95;99511.69;4995303;28;20058;-44
2021/11/03 10:30:51;;;;;;;2.00;1.80;;;;;;;9.94;70.68;99508.22;5011632;28;20028;-44
2021/11/03 10:33:41;;;;;;;2.67;2.10;;;;;;;9.95;70.79;99509.97;5005686;28;20113;-43
2021/11/03 10:36:22;;;;;;;2.42;2.03;;;;;;;9.97;70.83;99500.25;5000936;28;20027;-46
2021/11/03 10:38:56;;;;;;;2.25;2.00;;;;;;;9.95;70.88;99495.03;5001942;28;20034;-44
2021/11/03 10:41:29;;;;;;;2.30;2.10;;;;;;;9.95;70.64;99494.16;5000248;28;20084;-44
2021/11/03 10:44:20;;;;;;;1.98;1.88;;;;;;;9.96;70.69;99482.69;5011079;28;20406;-44
2021/11/03 10:46:54;;;;;;;1.83;1.73;;;;;;;9.96;70.70;99480.06;4990140;28;20402;-44
2021/11/03 10:49:31;;;;;;;2.50;2.30;;;;;;;9.97;70.76;99479.19;5007684;28;20617;-44
2021/11/03 10:52:10;;;;;;;2.13;2.03;;;;;;;9.97;70.92;99473.91;5005380;28;20038;-44
2021/11/03 10:54:45;;;;;;;2.42;2.22;;;;;;;9.97;70.75;99471.28;5010169;28;20040;-44
2021/11/03 10:57:23;;;;;;;2.28;2.10;;;;;;;9.97;70.59;99468.66;4986595;28;20068;-44
2021/11/03 10:59:51;;;;;;;2.40;2.30;;;;;;;9.98;70.80;99458.03;5004048;28;20639;-44
2021/11/03 11:02:23;;;;;;;2.40;2.20;;;;;;;9.98;70.58;99463.31;5002471;28;20026;-43
2021/11/03 11:04:50;;;;;;;3.33;2.45;;;;;;;9.99;71.02;99464.19;4999799;28;20494;-44
2021/11/03 11:07:40;;;;;;;2.60;2.33;;;;;;;9.98;70.63;99465.94;5008868;28;20029;-44
2021/11/03 11:10:14;;;;;;;3.10;2.33;;;;;;;9.99;70.72;99464.19;4995683;28;20026;-44
2021/11/03 11:12:42;;;;;;;3.35;2.53;;;;;;;9.99;70.78;99464.19;4993830;28;20061;-44
2021/11/03 11:15:14;;;;;;;2.33;2.13;;;;;;;10.00;70.86;99461.53;5005744;28;20022;-44
2021/11/03 11:17:57;;;;;;;2.30;2.10;;;;;;;10.01;70.69;99462.41;5007943;28;20025;-44
2021/11/03 11:20:29;;;;;;;2.45;2.22;;;;;;;10.01;70.61;99446.59;4999290;28;20018;-44
2021/11/03 11:23:15;;;;;;;2.05;1.95;;;;;;;10.03;70.50;99459.72;5020550;28;20033;-43
2021/11/03 11:26:11;;;;;;;2.38;2.15;;;;;;;10.03;70.77;99459.72;5003134;28;20034;-44
2021/11/03 11:28:45;;;;;;;2.53;2.33;;;;;;;10.01;70.76;99457.97;4999673;28;20747;-44
2021/11/03 11:31:22;;;;;;;2.72;2.25;;;;;;;10.02;70.85;99464.13;5007150;28;20064;-44
2021/11/03 11:33:58;;;;;;;2.60;2.40;;;;;;;10.02;70.82;99464.13;5007113;28;20285;-44
2021/11/03 11:36:29;;;;;;;2.17;1.98;;;;;;;10.01;70.66;99451.84;4999265;28;20022;-43
2021/11/03 11:38:54;;;;;;;2.40;2.20;;;;;;;10.01;70.80;99457.13;5003388;28;20034;-44
2021/11/03 11:41:26;;;;;;;2.20;2.00;;;;;;;10.01;70.75;99452.69;5001379;28;20029;-43